Time;durP1;ratioP1;P1;durP2;ratioP2;P2;SDS_P1;SDS_P2;PMS_P1;PMS_P2;Temp;Humidity;BMP_temperature;BMP_pressure;BME280_temperature;BME280_humidity;BME280_pressure;Samples;Min_cycle;Max_cycle;Signal;HPM_P1;HPM_P2
2019/05/25 00:00:01;;;;;;;7.8;7.1;;;;;;;;;;;;;
2019/05/25 00:02:26;;;;;;;8.1;7.3;;;;;;;;;;;;;
2019/05/25 00:04:51;;;;;;;8.4;7.7;;;;;;;;;;;;;
2019/05/25 00:07:16;;;;;;;9.6;7.2;;;;;;;;;;;;;
2019/05/25 00:09:41;;;;;;;8.3;7.4;;;;;;;;;;;;;
2019/05/25 00:12:06;;;;;;;8.2;7.4;;;;;;;;;;;;;
2019/05/25 00:14:31;;;;;;;8.7;7.8;;;;;;;;;;;;;
2019/05/25 00:16:56;;;;;;;8.6;7.8;;;;;;;;;;;;;
2019/05/25 00:19:22;;;;;;;8.9;8.1;;;;;;;;;;;;;
2019/05/25 00:21:48;;;;;;;8.4;7.6;;;;;;;;;;;;;
2019/05/25 00:24:13;;;;;;;9.7;8.4;;;;;;;;;;;;;
2019/05/25 00:26:38;;;;;;;9.2;8.3;;;;;;;;;;;;;
2019/05/25 00:29:03;;;;;;;9.9;8.9;;;;;;;;;;;;;
2019/05/25 00:31:28;;;;;;;10.7;9.5;;;;;;;;;;;;;
2019/05/25 00:33:53;;;;;;;10.6;9.5;;;;;;;;;;;;;
2019/05/25 00:36:18;;;;;;;10;9.1;;;;;;;;;;;;;
2019/05/25 00:38:44;;;;;;;10.1;9.1;;;;;;;;;;;;;
2019/05/25 00:41:11;;;;;;;10.5;9.5;;;;;;;;;;;;;
2019/05/25 00:43:36;;;;;;;11;9.9;;;;;;;;;;;;;
2019/05/25 00:46:01;;;;;;;11.1;10;;;;;;;;;;;;;
2019/05/25 00:48:26;;;;;;;11.9;10.8;;;;;;;;;;;;;
2019/05/25 00:50:52;;;;;;;12.1;11;;;;;;;;;;;;;
2019/05/25 00:53:17;;;;;;;12;10.8;;;;;;;;;;;;;
2019/05/25 00:55:42;;;;;;;12.3;11.1;;;;;;;;;;;;;
2019/05/25 00:58:08;;;;;;;11.6;10.5;;;;;;;;;;;;;
2019/05/25 01:00:33;;;;;;;11.5;10.5;;;;;;;;;;;;;
2019/05/25 01:02:58;;;;;;;12.7;11.3;;;;;;;;;;;;;
2019/05/25 01:05:23;;;;;;;12.1;10.8;;;;;;;;;;;;;
2019/05/25 01:07:54;;;;;;;10.8;9.7;;;;;;;;;;;;;
2019/05/25 01:10:19;;;;;;;12.1;10.9;;;;;;;;;;;;;
2019/05/25 01:12:44;;;;;;;11;9.8;;;;;;;;;;;;;
2019/05/25 01:15:12;;;;;;;11.3;10.2;;;;;;;;;;;;;
2019/05/25 01:17:38;;;;;;;10.9;9.8;;;;;;;;;;;;;
2019/05/25 01:20:03;;;;;;;11.5;10.4;;;;;;;;;;;;;
2019/05/25 01:22:29;;;;;;;11.9;10.7;;;;;;;;;;;;;
2019/05/25 01:24:54;;;;;;;13.1;11.1;;;;;;;;;;;;;
2019/05/25 01:27:29;;;;;;;12.5;11.2;;;;;;;;;;;;;
2019/05/25 01:29:54;;;;;;;11.6;10.5;;;;;;;;;;;;;
2019/05/25 01:32:19;;;;;;;12.3;11;;;;;;;;;;;;;
2019/05/25 01:34:44;;;;;;;12.2;11;;;;;;;;;;;;;
2019/05/25 01:37:15;;;;;;;13.1;11.8;;;;;;;;;;;;;
2019/05/25 01:39:49;;;;;;;13;11.6;;;;;;;;;;;;;
2019/05/25 01:42:15;;;;;;;14.4;12.9;;;;;;;;;;;;;
2019/05/25 01:44:40;;;;;;;13.8;12.4;;;;;;;;;;;;;
2019/05/25 01:47:05;;;;;;;14;12.5;;;;;;;;;;;;;
2019/05/25 01:49:30;;;;;;;13;11.8;;;;;;;;;;;;;
2019/05/25 01:51:56;;;;;;;14.4;12.9;;;;;;;;;;;;;
2019/05/25 01:54:21;;;;;;;13.5;12.1;;;;;;;;;;;;;
2019/05/25 01:56:46;;;;;;;15.2;13;;;;;;;;;;;;;
2019/05/25 01:59:11;;;;;;;14.1;12.8;;;;;;;;;;;;;
2019/05/25 02:01:36;;;;;;;16.2;14.7;;;;;;;;;;;;;
2019/05/25 02:04:02;;;;;;;14.2;12.8;;;;;;;;;;;;;
2019/05/25 02:06:27;;;;;;;14.6;13.1;;;;;;;;;;;;;
2019/05/25 02:08:52;;;;;;;14.8;13.5;;;;;;;;;;;;;
2019/05/25 02:11:19;;;;;;;15.8;14.2;;;;;;;;;;;;;
2019/05/25 02:13:44;;;;;;;14.9;13.6;;;;;;;;;;;;;
2019/05/25 02:16:15;;;;;;;15;13.5;;;;;;;;;;;;;
2019/05/25 02:18:41;;;;;;;14.5;13.2;;;;;;;;;;;;;
2019/05/25 02:21:06;;;;;;;14.7;13.4;;;;;;;;;;;;;
2019/05/25 02:23:31;;;;;;;15.4;14;;;;;;;;;;;;;
2019/05/25 02:25:56;;;;;;;15.4;14;;;;;;;;;;;;;
2019/05/25 02:28:21;;;;;;;15.8;14.3;;;;;;;;;;;;;
2019/05/25 02:30:46;;;;;;;13.8;12.6;;;;;;;;;;;;;
2019/05/25 02:33:11;;;;;;;15.3;13.9;;;;;;;;;;;;;
2019/05/25 02:35:36;;;;;;;15.5;14.1;;;;;;;;;;;;;
2019/05/25 02:38:01;;;;;;;15.3;13.8;;;;;;;;;;;;;
2019/05/25 02:40:26;;;;;;;16.1;14.5;;;;;;;;;;;;;
2019/05/25 02:42:52;;;;;;;14.5;13.3;;;;;;;;;;;;;
2019/05/25 02:45:17;;;;;;;15.1;13.6;;;;;;;;;;;;;
2019/05/25 02:47:53;;;;;;;16.4;14.7;;;;;;;;;;;;;
2019/05/25 02:50:15;;;;;;;16;14.5;;;;;;;;;;;;;
2019/05/25 02:52:40;;;;;;;16;14.5;;;;;;;;;;;;;
2019/05/25 02:55:05;;;;;;;17.1;15.5;;;;;;;;;;;;;
2019/05/25 02:57:31;;;;;;;16.6;15.1;;;;;;;;;;;;;
2019/05/25 02:59:56;;;;;;;18;16.3;;;;;;;;;;;;;
2019/05/25 03:02:21;;;;;;;18;16.4;;;;;;;;;;;;;
2019/05/25 03:04:46;;;;;;;17.2;15.7;;;;;;;;;;;;;
2019/05/25 03:07:11;;;;;;;17.5;16;;;;;;;;;;;;;
2019/05/25 03:09:36;;;;;;;17.8;16.1;;;;;;;;;;;;;
2019/05/25 03:12:01;;;;;;;16.7;15.1;;;;;;;;;;;;;
2019/05/25 03:14:26;;;;;;;18.8;16.9;;;;;;;;;;;;;
2019/05/25 03:16:52;;;;;;;17.7;16;;;;;;;;;;;;;
2019/05/25 03:19:17;;;;;;;17.8;16.2;;;;;;;;;;;;;
2019/05/25 03:21:42;;;;;;;17.2;15.5;;;;;;;;;;;;;
2019/05/25 03:24:07;;;;;;;17.3;15.5;;;;;;;;;;;;;
2019/05/25 03:26:33;;;;;;;19.1;17.3;;;;;;;;;;;;;
2019/05/25 03:28:58;;;;;;;20.3;18.1;;;;;;;;;;;;;
2019/05/25 03:31:23;;;;;;;19.2;17.4;;;;;;;;;;;;;
2019/05/25 03:33:48;;;;;;;19.8;17.9;;;;;;;;;;;;;
2019/05/25 03:36:13;;;;;;;19.5;17.6;;;;;;;;;;;;;
2019/05/25 03:38:38;;;;;;;20.1;18.3;;;;;;;;;;;;;
2019/05/25 03:41:03;;;;;;;20.6;18.6;;;;;;;;;;;;;
2019/05/25 03:43:30;;;;;;;18.9;17;;;;;;;;;;;;;
2019/05/25 03:45:55;;;;;;;18.9;17.1;;;;;;;;;;;;;
2019/05/25 03:48:21;;;;;;;21.1;19.1;;;;;;;;;;;;;
2019/05/25 03:50:46;;;;;;;20.9;18.9;;;;;;;;;;;;;
2019/05/25 03:53:11;;;;;;;18.7;16.9;;;;;;;;;;;;;
2019/05/25 03:55:37;;;;;;;19.6;17.7;;;;;;;;;;;;;
2019/05/25 03:58:02;;;;;;;19.6;17.5;;;;;;;;;;;;;
2019/05/25 04:02:28;;;;;;;18.8;17;;;;;;;10.05;92.40039;957.7689;;;;
2019/05/25 04:04:53;;;;;;;19;17.3;;;;;;;10.14;91.86426;957.7214;;;;
2019/05/25 04:07:18;;;;;;;17;15.4;;;;;;;10.07;92.09277;957.7712;;;;
2019/05/25 04:09:44;;;;;;;17.1;15.5;;;;;;;10.14;92.08301;957.8236;;;;
2019/05/25 04:12:08;;;;;;;18.2;16.3;;;;;;;10.09;92.46582;957.7479;;;;
2019/05/25 04:14:33;;;;;;;18.3;16.3;;;;;;;10.14;92.25781;957.7975;;;;
2019/05/25 04:17:02;;;;;;;16.8;15.2;;;;;;;10.19;92.4082;957.7622;;;;
2019/05/25 04:19:27;;;;;;;17.6;16;;;;;;;10.22;92.35449;957.7213;;;;
2019/05/25 04:21:52;;;;;;;17.6;16;;;;;;;10.25;92.36035;957.7783;;;;
2019/05/25 04:24:18;;;;;;;16.5;15;;;;;;;10.32;92.25977;957.7878;;;;
2019/05/25 04:26:43;;;;;;;17.5;15.6;;;;;;;10.36;91.75;957.8386;;;;
2019/05/25 04:29:08;;;;;;;17.2;15.4;;;;;;;10.4;91.43457;957.9113;;;;
2019/05/25 04:31:33;;;;;;;16.2;14.8;;;;;;;10.54;91.93848;957.9175;;;;
2019/05/25 04:33:58;;;;;;;18.3;16.3;;;;;;;10.69;92.22461;957.9991;;;;
2019/05/25 04:36:23;;;;;;;16.9;15.3;;;;;;;10.81;92.08984;957.9475;;;;
2019/05/25 04:38:48;;;;;;;17.5;15.6;;;;;;;10.86;91.8125;957.9416;;;;
2019/05/25 04:41:13;;;;;;;16.2;14.7;;;;;;;11.01;90.06348;957.9808;;;;
2019/05/25 04:43:38;;;;;;;16.2;14.6;;;;;;;11.15;89.21484;957.94;;;;
2019/05/25 04:46:03;;;;;;;15.3;13.9;;;;;;;11.25;88.26465;957.9331;;;;
2019/05/25 04:48:31;;;;;;;16.4;14.9;;;;;;;11.21;87.33301;957.9758;;;;
2019/05/25 04:50:56;;;;;;;15.1;13.6;;;;;;;11.36;87.89355;957.998;;;;
2019/05/25 04:53:21;;;;;;;16.6;15;;;;;;;11.41;87.25684;958.0481;;;;
2019/05/25 04:55:46;;;;;;;16.2;14.6;;;;;;;11.26;87.78125;958.0731;;;;
2019/05/25 04:58:28;;;;;;;15.8;14.3;;;;;;;11.47;87.57031;958.0927;;;;
2019/05/25 05:01:00;;;;;;;14.3;12.9;;;;;;;11.72;85.14453;958.0809;;;;
2019/05/25 05:03:27;;;;;;;13;11.8;;;;;;;11.96;84.88965;957.9866;;;;
2019/05/25 05:06:00;;;;;;;13.2;11.9;;;;;;;12.15;84.44141;958.0327;;;;
2019/05/25 05:08:26;;;;;;;14.3;12.9;;;;;;;12.21;84.82227;958.0137;;;;
2019/05/25 05:10:55;;;;;;;15.3;12.5;;;;;;;12.36;83.45215;958.0131;;;;
2019/05/25 05:13:21;;;;;;;14.6;13;;;;;;;12.2;84.21973;957.9802;;;;
2019/05/25 05:15:46;;;;;;;16.3;13.3;;;;;;;12.28;82.70508;958.0187;;;;
2019/05/25 05:18:14;;;;;;;15.4;13;;;;;;;12.56;80.58008;958.0581;;;;
2019/05/25 05:20:42;;;;;;;14.8;13.4;;;;;;;12.75;81.75098;958.0538;;;;
2019/05/25 05:23:09;;;;;;;15.6;13.8;;;;;;;12.43;81.40234;958.0346;;;;
2019/05/25 05:25:35;;;;;;;15;13.6;;;;;;;12.57;81.01074;958.1128;;;;
2019/05/25 05:28:01;;;;;;;14.8;13.5;;;;;;;12.77;81.74121;958.1289;;;;
2019/05/25 05:30:26;;;;;;;15.6;14;;;;;;;12.66;81.19922;958.2271;;;;
2019/05/25 05:32:54;;;;;;;17.6;14.6;;;;;;;12.52;83.91016;958.2776;;;;
2019/05/25 05:35:19;;;;;;;16.6;15.1;;;;;;;12.69;83.51172;958.2622;;;;
2019/05/25 05:37:45;;;;;;;15.5;14.1;;;;;;;12.75;81.74121;958.2928;;;;
2019/05/25 05:40:11;;;;;;;17.4;15.7;;;;;;;12.64;83.21484;958.2972;;;;
2019/05/25 05:42:54;;;;;;;15.8;14.4;;;;;;;12.54;82.8584;958.2712;;;;
2019/05/25 05:45:31;;;;;;;15.8;14.2;;;;;;;12.92;82.33984;958.2729;;;;
2019/05/25 05:48:12;;;;;;;15.1;13.7;;;;;;;13.09;81.6875;958.3006;;;;
2019/05/25 05:50:39;;;;;;;15.8;14.4;;;;;;;13.13;83.85352;958.3041;;;;
2019/05/25 05:53:04;;;;;;;16.1;14.5;;;;;;;13.16;81.70117;958.2966;;;;
2019/05/25 05:55:29;;;;;;;15.2;13.9;;;;;;;13.49;80.47363;958.3517;;;;
2019/05/25 05:57:54;;;;;;;15.3;13.9;;;;;;;13.85;79.33203;958.2996;;;;
2019/05/25 06:00:23;;;;;;;14.1;12.7;;;;;;;14.39;77.64648;958.3464;;;;
2019/05/25 06:02:48;;;;;;;14.8;13.3;;;;;;;14.52;78.01953;958.3604;;;;
2019/05/25 06:05:16;;;;;;;15.3;13.7;;;;;;;14.38;78.26172;958.3689;;;;
2019/05/25 06:07:41;;;;;;;13.9;12.5;;;;;;;14.79;77.87012;958.3272;;;;
2019/05/25 06:10:25;;;;;;;14.3;12.9;;;;;;;14.57;79.15723;958.3676;;;;
2019/05/25 06:12:52;;;;;;;14.2;12.8;;;;;;;14.53;76.34473;958.3376;;;;
2019/05/25 06:15:16;;;;;;;15.9;13;;;;;;;14.77;74.81348;958.3725;;;;
2019/05/25 06:17:41;;;;;;;14.4;13.1;;;;;;;14.99;74.33887;958.3666;;;;
2019/05/25 06:20:07;;;;;;;13.5;12.2;;;;;;;15.24;74.71973;958.3814;;;;
2019/05/25 06:22:35;;;;;;;14.5;13.1;;;;;;;15.1;74.61426;958.2918;;;;
2019/05/25 06:25:00;;;;;;;13.5;12.1;;;;;;;15.46;73.60156;958.3106;;;;
2019/05/25 06:27:25;;;;;;;13.2;11.9;;;;;;;15.73;73.33301;958.2935;;;;
2019/05/25 06:29:50;;;;;;;14.6;13;;;;;;;15.68;73.90625;958.2796;;;;
2019/05/25 06:32:17;;;;;;;13.8;12.4;;;;;;;15.89;70.33301;958.3769;;;;
2019/05/25 06:34:43;;;;;;;14.5;13.1;;;;;;;15.75;71.09375;958.481;;;;
2019/05/25 06:37:08;;;;;;;14;12.6;;;;;;;15.51;71.91797;958.4893;;;;
2019/05/25 06:39:34;;;;;;;16.5;14.7;;;;;;;15.34;71.72656;958.4551;;;;
2019/05/25 06:41:59;;;;;;;16;13.9;;;;;;;15.58;71.12402;958.4417;;;;
2019/05/25 06:44:24;;;;;;;15.3;13.7;;;;;;;15.69;72.40332;958.5058;;;;
2019/05/25 06:46:49;;;;;;;15.6;14.1;;;;;;;15.66;70.89258;958.5007;;;;
2019/05/25 06:49:14;;;;;;;14.9;12.7;;;;;;;15.99;72.54492;958.5012;;;;
2019/05/25 06:51:48;;;;;;;15.5;13.1;;;;;;;16.1;66.94141;958.4872;;;;
2019/05/25 06:54:14;;;;;;;16.1;12.4;;;;;;;16.24;64.93066;958.4514;;;;
2019/05/25 06:56:44;;;;;;;14.1;12.5;;;;;;;16.28;65.4502;958.5239;;;;
2019/05/25 06:59:12;;;;;;;13.1;11.8;;;;;;;16.43;66.1748;958.4782;;;;
2019/05/25 07:01:37;;;;;;;15.6;12.1;;;;;;;16.54;64.77539;958.46;;;;
2019/05/25 07:04:02;;;;;;;14.6;12.1;;;;;;;16.56;64.50879;958.5178;;;;
2019/05/25 07:06:31;;;;;;;16.9;12.5;;;;;;;16.33;68.5791;958.5258;;;;
2019/05/25 07:08:58;;;;;;;17.1;12.1;;;;;;;16.5;64.98047;958.5206;;;;
2019/05/25 07:11:23;;;;;;;15;11.9;;;;;;;16.48;64.28809;958.5705;;;;
2019/05/25 07:13:48;;;;;;;14.9;12.2;;;;;;;16.51;65.89453;958.5278;;;;
2019/05/25 07:16:13;;;;;;;14.7;12.7;;;;;;;16.44;64.77246;958.6231;;;;
2019/05/25 07:18:47;;;;;;;13.6;11.9;;;;;;;16.67;64.57324;958.593;;;;
2019/05/25 07:21:12;;;;;;;15.1;12.5;;;;;;;16.98;66.24512;958.5875;;;;
2019/05/25 07:23:39;;;;;;;14.4;12.2;;;;;;;17.28;64.7207;958.6241;;;;
2019/05/25 07:26:04;;;;;;;13.8;11.8;;;;;;;17.23;63.21191;958.6016;;;;
2019/05/25 07:28:30;;;;;;;12.5;11.2;;;;;;;17.52;60.67578;958.6477;;;;
2019/05/25 07:30:55;;;;;;;12.7;11.3;;;;;;;17.66;63.2627;958.7028;;;;
2019/05/25 07:33:28;;;;;;;12.8;11.5;;;;;;;17.77;60.33496;958.7444;;;;
2019/05/25 07:35:53;;;;;;;11.7;10.5;;;;;;;18.12;57.98633;958.6443;;;;
2019/05/25 07:38:19;;;;;;;12.7;11.1;;;;;;;18.15;58.41504;958.5704;;;;
2019/05/25 07:40:44;;;;;;;13.2;11;;;;;;;18.23;62.81543;958.5647;;;;
2019/05/25 07:43:10;;;;;;;12.9;10.8;;;;;;;18.42;56.34668;958.6161;;;;
2019/05/25 07:45:35;;;;;;;11.3;10.1;;;;;;;18.75;57.06055;958.595;;;;
2019/05/25 07:48:00;;;;;;;13.2;10.8;;;;;;;18.67;54.36816;958.5895;;;;
2019/05/25 07:50:26;;;;;;;11;9.9;;;;;;;18.24;54.11719;958.6145;;;;
2019/05/25 07:52:53;;;;;;;24.8;10.2;;;;;;;18.28;57.06934;958.6691;;;;
2019/05/25 07:55:18;;;;;;;10.1;9;;;;;;;18.92;54.75195;958.6931;;;;
2019/05/25 07:57:45;;;;;;;10.5;8.6;;;;;;;19.22;52.58887;958.6887;;;;
2019/05/25 08:00:10;;;;;;;9.8;8.8;;;;;;;19.4;51.83301;958.7104;;;;
2019/05/25 08:02:35;;;;;;;11.2;9.2;;;;;;;19.58;53.5166;958.75;;;;
2019/05/25 08:05:00;;;;;;;10;8.9;;;;;;;19.68;51.57129;958.8059;;;;
2019/05/25 08:07:39;;;;;;;11.2;8.3;;;;;;;19.4;52.0918;958.8142;;;;
2019/05/25 08:10:12;;;;;;;9.4;7.3;;;;;;;19.34;50.0957;958.9136;;;;
2019/05/25 08:12:45;;;;;;;9.2;7.1;;;;;;;19.37;51.48828;958.8055;;;;
2019/05/25 08:15:15;;;;;;;10;7.2;;;;;;;19.77;47.84668;958.8435;;;;
2019/05/25 08:17:49;;;;;;;9.5;6.9;;;;;;;19.82;49.43066;958.8758;;;;
2019/05/25 08:20:14;;;;;;;8.7;6.9;;;;;;;20.03;49.19531;958.8318;;;;
2019/05/25 08:22:40;;;;;;;7.7;6.5;;;;;;;20.68;45.74805;958.8159;;;;
2019/05/25 08:25:05;;;;;;;6.5;5.9;;;;;;;20.67;45.41602;958.7868;;;;
2019/05/25 08:27:39;;;;;;;7.1;5.7;;;;;;;21.09;42.97754;958.8452;;;;
2019/05/25 08:30:06;;;;;;;9.1;6.3;;;;;;;21.34;46.01855;958.7816;;;;
2019/05/25 08:32:37;;;;;;;10.3;6.9;;;;;;;21.41;43.6709;958.8622;;;;
2019/05/25 08:35:11;;;;;;;8.1;6.6;;;;;;;21;46.36035;958.7548;;;;
2019/05/25 08:37:36;;;;;;;9.6;6.4;;;;;;;20.93;43.94238;958.7611;;;;
2019/05/25 08:40:04;;;;;;;7.2;6;;;;;;;20.98;45.57813;958.7443;;;;
2019/05/25 08:42:39;;;;;;;8.2;6.6;;;;;;;20.82;45.13672;958.8162;;;;
2019/05/25 08:45:20;;;;;;;6.8;6.1;;;;;;;20.77;44.26855;958.8022;;;;
2019/05/25 08:47:45;;;;;;;7.9;6.5;;;;;;;20.6;47.58301;958.8141;;;;
2019/05/25 08:50:12;;;;;;;10.4;6.7;;;;;;;20.43;45.85156;958.8125;;;;
2019/05/25 08:52:37;;;;;;;8.2;6.5;;;;;;;20.57;45.73633;958.8367;;;;
2019/05/25 08:55:06;;;;;;;7.2;6;;;;;;;20.75;45.68555;958.8043;;;;
2019/05/25 08:57:31;;;;;;;7.1;6.3;;;;;;;20.4;46.35645;958.787;;;;
2019/05/25 09:00:00;;;;;;;6.8;6.1;;;;;;;20.55;45.08594;958.7519;;;;
2019/05/25 09:02:26;;;;;;;7.3;6.2;;;;;;;20.16;45.22266;958.7479;;;;
2019/05/25 09:04:50;;;;;;;7.6;5.6;;;;;;;20.81;49.3291;958.7914;;;;
2019/05/25 09:07:16;;;;;;;7.2;5.8;;;;;;;20.94;48.375;958.8111;;;;
2019/05/25 09:09:42;;;;;;;7.4;5.8;;;;;;;21.4;41.02051;958.8334;;;;
2019/05/25 09:12:07;;;;;;;5.8;5.1;;;;;;;21.78;43.06738;958.8022;;;;
2019/05/25 09:14:32;;;;;;;7;5.9;;;;;;;21.15;42.6875;958.832;;;;
2019/05/25 09:16:58;;;;;;;6.4;5.8;;;;;;;21.32;42.8584;958.8669;;;;
2019/05/25 09:19:23;;;;;;;8;6.1;;;;;;;21.53;43.69434;958.8527;;;;
2019/05/25 09:21:50;;;;;;;6.9;6;;;;;;;20.44;44.09473;958.8425;;;;
2019/05/25 09:24:15;;;;;;;7.2;6;;;;;;;20.59;46.02246;958.9414;;;;
2019/05/25 09:26:40;;;;;;;7;6.3;;;;;;;21.11;40.61523;958.9249;;;;
2019/05/25 09:29:06;;;;;;;7.2;5.6;;;;;;;21.97;41.72461;958.9766;;;;
2019/05/25 09:31:31;;;;;;;7.7;6.1;;;;;;;21.35;47.16602;958.9626;;;;
2019/05/25 09:33:56;;;;;;;7;5.9;;;;;;;21.45;46.70313;958.9788;;;;
2019/05/25 09:36:22;;;;;;;7.3;6;;;;;;;21.41;47.63379;959.0145;;;;
2019/05/25 09:38:51;;;;;;;7.9;7;;;;;;;20.73;52.16699;958.9379;;;;
2019/05/25 09:41:43;;;;;;;8.6;7.8;;;;;;;20.36;54.77734;958.9836;;;;
2019/05/25 09:44:20;;;;;;;8.3;7.3;;;;;;;20.8;53.75684;959.0276;;;;
2019/05/25 09:46:45;;;;;;;8.5;7.6;;;;;;;20.87;53.48242;959.0175;;;;
2019/05/25 09:49:15;;;;;;;8.8;7.9;;;;;;;21.15;52.67676;959.0623;;;;
2019/05/25 09:51:40;;;;;;;9.9;8.1;;;;;;;20.15;56.22656;959.1231;;;;
2019/05/25 09:54:05;;;;;;;7.5;6.8;;;;;;;20.47;55.22949;959.1359;;;;
2019/05/25 09:56:32;;;;;;;10.3;7.4;;;;;;;19.84;56.88184;959.1984;;;;
2019/05/25 09:58:57;;;;;;;9.4;7.8;;;;;;;19.45;57.28027;959.236;;;;
2019/05/25 10:01:23;;;;;;;8.7;7.8;;;;;;;19.05;59.41602;959.2754;;;;
2019/05/25 10:04:01;;;;;;;9;8.1;;;;;;;18.81;59.99414;959.2966;;;;
2019/05/25 10:06:27;;;;;;;9.5;8.2;;;;;;;18.6;62.3418;959.3591;;;;
2019/05/25 10:08:52;;;;;;;11;9.9;;;;;;;18.24;64.09961;959.4604;;;;
2019/05/25 10:11:18;;;;;;;11.8;10.6;;;;;;;17.99;66.15137;959.4172;;;;
2019/05/25 10:13:44;;;;;;;11.2;10.1;;;;;;;17.89;66.37109;959.4528;;;;
2019/05/25 10:16:10;;;;;;;10.3;9.3;;;;;;;17.32;65.41895;959.4897;;;;
2019/05/25 10:18:35;;;;;;;10.4;9.3;;;;;;;17.15;67.30176;959.4394;;;;
2019/05/25 10:21:03;;;;;;;9.4;8.5;;;;;;;16.74;65.8125;959.3855;;;;
2019/05/25 10:23:28;;;;;;;9.1;7.9;;;;;;;16.58;65.88086;959.4498;;;;
2019/05/25 10:25:53;;;;;;;8.8;7.4;;;;;;;16.47;66.625;959.3993;;;;
2019/05/25 10:28:19;;;;;;;9.4;8.3;;;;;;;16.24;69.0459;959.3513;;;;
2019/05/25 10:30:45;;;;;;;10.2;9.1;;;;;;;16.4;74.31055;959.2313;;;;
2019/05/25 10:33:12;;;;;;;11.4;10;;;;;;;16.36;73.16895;959.1418;;;;
2019/05/25 10:35:37;;;;;;;13.3;11.9;;;;;;;16.47;79.87695;959.0247;;;;
2019/05/25 10:38:06;;;;;;;11.5;10.3;;;;;;;16.79;77.60449;958.8844;;;;
2019/05/25 10:40:33;;;;;;;11.2;10.1;;;;;;;16.85;79.8418;958.9398;;;;
2019/05/25 10:43:31;;;;;;;11.7;10.5;;;;;;;16.87;79.4707;958.9728;;;;
2019/05/25 10:46:16;;;;;;;10.8;9.7;;;;;;;16.63;72.66211;958.9439;;;;
2019/05/25 10:48:52;;;;;;;10.5;9.4;;;;;;;17.34;71.95996;958.9572;;;;
2019/05/25 10:51:28;;;;;;;10.4;9.4;;;;;;;17.48;74;958.8778;;;;
2019/05/25 10:53:55;;;;;;;9.6;8.7;;;;;;;17.97;69.16602;958.9622;;;;
2019/05/25 10:56:29;;;;;;;10.2;9.2;;;;;;;18.17;68.83203;958.883;;;;
2019/05/25 10:58:56;;;;;;;9.8;8.9;;;;;;;18.7;66.56348;958.9617;;;;
2019/05/25 11:01:43;;;;;;;8.8;8;;;;;;;19.41;62.73828;958.9519;;;;
2019/05/25 11:04:08;;;;;;;8.9;8;;;;;;;19.74;57.89453;958.9178;;;;
2019/05/25 11:06:33;;;;;;;8.8;7.9;;;;;;;20.2;56.54004;958.8553;;;;
2019/05/25 11:09:08;;;;;;;8.5;7.7;;;;;;;19.95;54.85742;958.84;;;;
2019/05/25 11:11:49;;;;;;;7;6.1;;;;;;;20.1;56.86816;958.8141;;;;
2019/05/25 11:14:33;;;;;;;5.7;5.2;;;;;;;20.49;53;958.6919;;;;
2019/05/25 11:17:05;;;;;;;6.7;6;;;;;;;19.69;55.73242;958.7737;;;;
2019/05/25 11:19:31;;;;;;;6;5.3;;;;;;;19.85;56.96582;958.6897;;;;
2019/05/25 11:22:07;;;;;;;6.7;5.6;;;;;;;20.1;55.42969;958.6841;;;;
2019/05/25 11:24:39;;;;;;;7.9;6.1;;;;;;;20.46;54.55371;958.6533;;;;
2019/05/25 11:27:13;;;;;;;6.3;5.1;;;;;;;19.56;50.21484;958.6753;;;;
2019/05/25 11:29:51;;;;;;;5.5;5;;;;;;;19.78;48.48438;958.5865;;;;
2019/05/25 11:32:40;;;;;;;7.4;4.6;;;;;;;19.93;49.92676;958.5967;;;;
2019/05/25 11:35:16;;;;;;;4.6;4;;;;;;;20.68;46.61133;958.5076;;;;
2019/05/25 11:38:03;;;;;;;5.8;5.2;;;;;;;20.52;56.24902;958.4885;;;;
2019/05/25 11:40:33;;;;;;;4.9;4.4;;;;;;;20.95;47.1582;958.4637;;;;
2019/05/25 11:43:21;;;;;;;5.5;4.7;;;;;;;21.14;48.08887;958.4519;;;;
2019/05/25 11:45:47;;;;;;;5.2;4.7;;;;;;;21.4;46.07129;958.4089;;;;
2019/05/25 11:48:12;;;;;;;5;4.5;;;;;;;21.93;50.54297;958.3881;;;;
2019/05/25 11:50:44;;;;;;;5.2;4;;;;;;;21.79;44.65625;958.3741;;;;
2019/05/25 11:53:08;;;;;;;5;4;;;;;;;22.05;44.62305;958.3823;;;;
2019/05/25 11:55:33;;;;;;;4;3.6;;;;;;;22;47.00977;958.3203;;;;
2019/05/25 11:58:04;;;;;;;4.7;3.9;;;;;;;22.45;43.85645;958.356;;;;
2019/05/25 12:00:29;;;;;;;3.7;3.4;;;;;;;22.29;42.69043;958.2374;;;;
2019/05/25 12:02:54;;;;;;;3.5;2.8;;;;;;;22.61;41.76172;958.2862;;;;
2019/05/25 12:05:20;;;;;;;3.3;3;;;;;;;22.19;46.15332;958.2308;;;;
2019/05/25 12:07:45;;;;;;;5.1;3.4;;;;;;;21.37;44.38867;958.2611;;;;
2019/05/25 12:10:10;;;;;;;3.5;3.2;;;;;;;20.74;43.9707;958.2045;;;;
2019/05/25 12:12:36;;;;;;;3.1;2.7;;;;;;;21.48;42.54199;958.2529;;;;
2019/05/25 12:15:02;;;;;;;3.3;2.9;;;;;;;21.8;44.65723;958.2556;;;;
2019/05/25 12:17:27;;;;;;;3.2;2.9;;;;;;;21.86;45.79883;958.2083;;;;
2019/05/25 12:19:52;;;;;;;3.8;3.3;;;;;;;22.02;48.39746;958.1965;;;;
2019/05/25 12:22:19;;;;;;;3.3;3;;;;;;;22;44.1084;958.1387;;;;
2019/05/25 12:24:44;;;;;;;3.4;3.1;;;;;;;21.01;47.80176;958.1422;;;;
2019/05/25 12:27:13;;;;;;;4.1;3.7;;;;;;;20.57;49.9043;958.0904;;;;
2019/05/25 12:29:38;;;;;;;3.5;3.2;;;;;;;20.73;49.74414;958.0717;;;;
2019/05/25 12:32:03;;;;;;;3.7;3.4;;;;;;;20.45;44.75684;958.0731;;;;
2019/05/25 12:34:28;;;;;;;4.1;3.4;;;;;;;20.19;45.68555;958.0119;;;;
2019/05/25 12:36:53;;;;;;;3.5;3.2;;;;;;;21.01;44.42188;958.0381;;;;
2019/05/25 12:39:18;;;;;;;3.5;3.2;;;;;;;21.35;43.32227;958.0214;;;;
2019/05/25 12:41:43;;;;;;;3.4;3.1;;;;;;;20.83;48.5166;957.9774;;;;
2019/05/25 12:44:11;;;;;;;4;3;;;;;;;21.31;47.92969;958.0711;;;;
2019/05/25 12:46:37;;;;;;;3;2.4;;;;;;;23.21;39.75;957.9832;;;;
2019/05/25 12:49:02;;;;;;;3.1;2.8;;;;;;;23.63;38.25488;957.9596;;;;
2019/05/25 12:51:27;;;;;;;3.9;2.8;;;;;;;22.52;41.91895;957.9785;;;;
2019/05/25 12:54:08;;;;;;;3.5;2.8;;;;;;;22.3;43.72266;958.0446;;;;
2019/05/25 12:56:53;;;;;;;3.1;2.8;;;;;;;21.57;44.78613;958.0447;;;;
2019/05/25 12:59:18;;;;;;;3.6;2.8;;;;;;;21.45;43.09473;958.0022;;;;
2019/05/25 13:01:59;;;;;;;3.1;2.8;;;;;;;21.44;44.46582;958.0776;;;;
2019/05/25 13:04:28;;;;;;;2.9;2.6;;;;;;;21.83;45.38086;958.0698;;;;
2019/05/25 13:06:53;;;;;;;4.6;2.7;;;;;;;21.93;45.0127;958.0533;;;;
2019/05/25 13:09:29;;;;;;;2.7;2.5;;;;;;;22.37;42.27148;958.0117;;;;
2019/05/25 13:11:54;;;;;;;2.8;2.3;;;;;;;21.88;40.27051;958.0095;;;;
2019/05/25 13:14:19;;;;;;;3.9;2.4;;;;;;;21.09;39.90332;958.0045;;;;
2019/05/25 13:16:44;;;;;;;2.9;2.4;;;;;;;21.68;40.62012;958.032;;;;
2019/05/25 13:19:09;;;;;;;2.9;2.5;;;;;;;21.6;41.22754;957.9617;;;;
2019/05/25 13:21:34;;;;;;;3.5;2.5;;;;;;;21.7;41.10742;957.9597;;;;
2019/05/25 13:24:00;;;;;;;2.8;2.5;;;;;;;21.7;42.7168;958.0378;;;;
2019/05/25 13:26:27;;;;;;;3.4;2.7;;;;;;;21.71;41.10742;958.0014;;;;
2019/05/25 13:28:52;;;;;;;3.2;2.7;;;;;;;21.42;42.01563;957.9495;;;;
2019/05/25 13:31:21;;;;;;;3.4;2.6;;;;;;;21.14;45.7002;957.9573;;;;
2019/05/25 13:33:46;;;;;;;3.1;2.8;;;;;;;21.47;45.15625;958.0028;;;;
2019/05/25 13:36:11;;;;;;;3.2;2.7;;;;;;;20.87;47.32813;957.9106;;;;
2019/05/25 13:38:38;;;;;;;3;2.7;;;;;;;21.04;42.79492;957.9034;;;;
2019/05/25 13:41:05;;;;;;;3.2;2.9;;;;;;;21.31;44.28711;957.9409;;;;
2019/05/25 13:43:30;;;;;;;3.4;2.7;;;;;;;21.84;43.13281;957.8942;;;;
2019/05/25 13:45:55;;;;;;;5.1;2.7;;;;;;;21.47;44.68164;957.9556;;;;
2019/05/25 13:48:20;;;;;;;2.8;2.4;;;;;;;21.97;39.55762;957.9691;;;;
2019/05/25 13:50:45;;;;;;;5.3;3.2;;;;;;;22.52;37.67383;957.9916;;;;
2019/05/25 13:53:10;;;;;;;3.6;2.9;;;;;;;22.19;38.93652;957.9402;;;;
2019/05/25 13:55:36;;;;;;;4.5;2.9;;;;;;;22.41;39.63184;958.0489;;;;
2019/05/25 13:58:01;;;;;;;3.7;3;;;;;;;22.74;38.04785;958.0139;;;;
2019/05/25 14:00:31;;;;;;;4.1;3;;;;;;;22.43;39.51465;957.9851;;;;
2019/05/25 14:02:56;;;;;;;3.6;3.3;;;;;;;22.27;42.52246;958.0362;;;;
2019/05/25 14:05:23;;;;;;;3.7;3.4;;;;;;;23;40.74121;957.9691;;;;
2019/05/25 14:07:48;;;;;;;4;3.4;;;;;;;23.08;40.11914;957.9347;;;;
2019/05/25 14:10:13;;;;;;;4.8;3.4;;;;;;;22.52;38.94238;957.9055;;;;
2019/05/25 14:12:48;;;;;;;5.5;2.9;;;;;;;22.82;40.02441;957.9014;;;;
2019/05/25 14:15:21;;;;;;;3.4;2.8;;;;;;;23.62;39.01563;957.8864;;;;
2019/05/25 14:17:58;;;;;;;4.4;3.4;;;;;;;22.79;39.17871;957.8409;;;;
2019/05/25 14:20:37;;;;;;;4;3.2;;;;;;;23.93;37.53125;957.867;;;;
2019/05/25 14:23:02;;;;;;;3.7;3.3;;;;;;;24.19;36.84961;957.8689;;;;
2019/05/25 14:25:27;;;;;;;3.6;3.2;;;;;;;24;39.15527;957.899;;;;
2019/05/25 14:27:58;;;;;;;8.2;3.8;;;;;;;22.77;43.28223;958.0483;;;;
2019/05/25 14:30:31;;;;;;;8.6;4;;;;;;;21.46;48.49121;957.9216;;;;
2019/05/25 14:33:00;;;;;;;6.5;4.1;;;;;;;22.36;44.98633;957.9778;;;;
2019/05/25 14:35:25;;;;;;;5;3.5;;;;;;;24.31;39.96875;957.8697;;;;
2019/05/25 14:38:00;;;;;;;4.7;3.9;;;;;;;24.54;40.0127;957.9589;;;;
2019/05/25 14:40:25;;;;;;;3.9;3.5;;;;;;;24.61;40.55469;957.9604;;;;
2019/05/25 14:42:51;;;;;;;4.7;4.3;;;;;;;22.85;43.99023;958.0193;;;;
2019/05/25 14:45:19;;;;;;;4.8;4.1;;;;;;;23.28;42.89258;957.968;;;;
2019/05/25 14:47:41;;;;;;;6.3;4.1;;;;;;;23.54;41.07617;957.8948;;;;
2019/05/25 14:50:06;;;;;;;5.8;4.4;;;;;;;24.19;42.15918;957.8806;;;;
2019/05/25 14:52:33;;;;;;;5.6;4.4;;;;;;;24.59;39.50488;957.8767;;;;
2019/05/25 14:55:09;;;;;;;5.1;4.4;;;;;;;23.73;41.12891;957.8695;;;;
2019/05/25 14:57:34;;;;;;;5.5;4.3;;;;;;;24.03;40.52539;957.7461;;;;
2019/05/25 14:59:59;;;;;;;6.9;4.1;;;;;;;24.38;42.16504;957.7761;;;;
2019/05/25 15:02:24;;;;;;;4.6;4.2;;;;;;;23.63;42.97363;957.7545;;;;
2019/05/25 15:04:49;;;;;;;6.5;4.2;;;;;;;22.68;47.01074;957.7849;;;;
2019/05/25 15:07:14;;;;;;;5.7;4.4;;;;;;;22.92;43.46387;957.7645;;;;
2019/05/25 15:09:39;;;;;;;3.9;3.6;;;;;;;22.86;44.03906;957.8432;;;;
2019/05/25 15:12:05;;;;;;;4.2;3.8;;;;;;;22.87;43.44629;957.8419;;;;
2019/05/25 15:14:40;;;;;;;5.7;3.7;;;;;;;22.53;44.14941;957.8772;;;;
2019/05/25 15:17:04;;;;;;;4;3.4;;;;;;;22.66;44.51758;957.962;;;;
2019/05/25 15:19:30;;;;;;;5;3.8;;;;;;;22.34;43.26465;958.0556;;;;
2019/05/25 15:21:55;;;;;;;5.4;4.1;;;;;;;22.05;46.06836;958.0173;;;;
2019/05/25 15:24:24;;;;;;;4.7;4.2;;;;;;;21.57;46.5625;958.0226;;;;
2019/05/25 15:26:49;;;;;;;4.7;4.2;;;;;;;21.22;46.98535;958.0278;;;;
2019/05/25 15:29:14;;;;;;;5;3.9;;;;;;;21.85;43.7627;958.022;;;;